NPV7712 BIIS-BIKF
Flight info
| Callsign | NPV7712 |
|---|---|
| Flight time | 0h 39m |
| Altitude | 21000 |
| Route | ISACI1A ISACI DCT MYRAR/M064F200 DCT ELVUM |
| Aircraft | A319/M-SDE3FGHIRWY/LB1 |
Departure
| Time | 2026-05-06 14:31 |
|---|---|
| Airport | Ísafjörður Airport (BIIS) |
Arrival
| Time | 2026-05-06 15:10 |
|---|---|
| Airport | Keflavik International Airport (BIKF) |
| Time | Latitude | Longitude | Altitude | Speed | Heading |
|---|---|---|---|---|---|
| 2026-05-06 14:22 | 66.05568 | -23.14188 | 28 ft | 0 kts | 243° |
| 2026-05-06 14:27 | 66.05566 | -23.14194 | 28 ft | 2 kts | 250° |
| 2026-05-06 14:28 | 66.05584 | -23.14241 | 25 ft | 8 kts | 339° |
| 2026-05-06 14:28 | 66.05605 | -23.14261 | 24 ft | 0 kts | 337° |
| 2026-05-06 14:28 | 66.05620 | -23.14276 | 22 ft | 7 kts | 332° |
| 2026-05-06 14:29 | 66.05625 | -23.14395 | 19 ft | 10 kts | 244° |
| 2026-05-06 14:29 | 66.05592 | -23.14548 | 15 ft | 15 kts | 242° |
| 2026-05-06 14:29 | 66.05546 | -23.14726 | 11 ft | 16 kts | 233° |
| 2026-05-06 14:29 | 66.05526 | -23.14826 | 9 ft | 2 kts | 318° |
| 2026-05-06 14:30 | 66.05531 | -23.14824 | 9 ft | 2 kts | 29° |
| 2026-05-06 14:30 | 66.05537 | -23.14806 | 10 ft | 3 kts | 59° |
| 2026-05-06 14:30 | 66.05537 | -23.14803 | 10 ft | 0 kts | 62° |
| 2026-05-06 14:31 | 66.05573 | -23.14638 | 13 ft | 44 kts | 62° |
| 2026-05-06 14:31 | 66.05783 | -23.13658 | 34 ft | 109 kts | 62° |
| 2026-05-06 14:31 | 66.06123 | -23.12198 | 445 ft | 121 kts | 55° |
| 2026-05-06 14:31 | 66.06518 | -23.11067 | 1008 ft | 116 kts | 31° |
| 2026-05-06 14:32 | 66.07144 | -23.10505 | 1637 ft | 116 kts | 14° |
| 2026-05-06 14:32 | 66.07772 | -23.09976 | 2114 ft | 119 kts | 24° |
| 2026-05-06 14:32 | 66.08526 | -23.09128 | 2532 ft | 132 kts | 25° |
| 2026-05-06 14:32 | 66.09116 | -23.08440 | 2929 ft | 138 kts | 26° |
| 2026-05-06 14:33 | 66.09900 | -23.07501 | 3584 ft | 137 kts | 26° |
| 2026-05-06 14:33 | 66.10474 | -23.06802 | 4057 ft | 137 kts | 26° |
| 2026-05-06 14:33 | 66.10969 | -23.06197 | 4449 ft | 137 kts | 26° |
| 2026-05-06 14:33 | 66.11556 | -23.05290 | 4905 ft | 141 kts | 43° |
| 2026-05-06 14:34 | 66.11986 | -23.03205 | 5323 ft | 162 kts | 80° |
| 2026-05-06 14:34 | 66.11657 | -23.00505 | 5884 ft | 183 kts | 124° |
| 2026-05-06 14:34 | 66.10718 | -22.98506 | 6558 ft | 189 kts | 134° |
| 2026-05-06 14:34 | 66.10103 | -22.96732 | 7038 ft | 182 kts | 108° |
| 2026-05-06 14:35 | 66.09875 | -22.94789 | 7477 ft | 176 kts | 92° |
| 2026-05-06 14:35 | 66.09787 | -22.92659 | 7951 ft | 176 kts | 88° |
| 2026-05-06 14:35 | 66.09689 | -22.89645 | 8599 ft | 179 kts | 89° |
| 2026-05-06 14:35 | 66.09544 | -22.86644 | 9227 ft | 181 kts | 91° |
| 2026-05-06 14:36 | 66.09248 | -22.83743 | 9804 ft | 191 kts | 112° |
| 2026-05-06 14:36 | 66.08601 | -22.82052 | 10158 ft | 205 kts | 143° |
| 2026-05-06 14:36 | 66.07621 | -22.81133 | 10413 ft | 221 kts | 162° |
| 2026-05-06 14:36 | 66.06605 | -22.80653 | 10628 ft | 233 kts | 168° |
| 2026-05-06 14:37 | 66.05434 | -22.80271 | 10854 ft | 247 kts | 170° |
| 2026-05-06 14:37 | 66.03941 | -22.79835 | 11160 ft | 262 kts | 170° |
| 2026-05-06 14:37 | 66.02554 | -22.79391 | 11438 ft | 276 kts | 169° |
| 2026-05-06 14:37 | 66.01325 | -22.78961 | 11700 ft | 288 kts | 168° |
| 2026-05-06 14:38 | 65.99822 | -22.78386 | 12031 ft | 301 kts | 169° |
| 2026-05-06 14:38 | 65.97745 | -22.77562 | 12436 ft | 319 kts | 169° |
| 2026-05-06 14:38 | 65.95512 | -22.76667 | 12821 ft | 337 kts | 169° |
| 2026-05-06 14:38 | 65.93169 | -22.75723 | 13313 ft | 351 kts | 169° |
| 2026-05-06 14:39 | 65.90726 | -22.74739 | 14075 ft | 356 kts | 169° |
| 2026-05-06 14:39 | 65.88311 | -22.73768 | 14737 ft | 363 kts | 169° |
| 2026-05-06 14:39 | 65.85811 | -22.72767 | 15436 ft | 367 kts | 169° |
| 2026-05-06 14:39 | 65.83286 | -22.71736 | 16149 ft | 371 kts | 168° |
| 2026-05-06 14:40 | 65.80770 | -22.70464 | 16836 ft | 374 kts | 166° |
| 2026-05-06 14:40 | 65.78268 | -22.69150 | 17489 ft | 378 kts | 166° |
| 2026-05-06 14:40 | 65.75691 | -22.67798 | 18133 ft | 382 kts | 166° |
| 2026-05-06 14:40 | 65.73085 | -22.66434 | 18763 ft | 385 kts | 166° |
| 2026-05-06 14:41 | 65.70501 | -22.65085 | 19366 ft | 389 kts | 166° |
| 2026-05-06 14:41 | 65.68025 | -22.63797 | 19923 ft | 392 kts | 166° |
| 2026-05-06 14:41 | 65.65743 | -22.62611 | 20421 ft | 395 kts | 167° |
| 2026-05-06 14:41 | 65.63058 | -22.61219 | 20982 ft | 399 kts | 167° |
| 2026-05-06 14:42 | 65.60352 | -22.59819 | 21321 ft | 401 kts | 167° |
| 2026-05-06 14:42 | 65.57748 | -22.58476 | 21393 ft | 402 kts | 167° |
| 2026-05-06 14:42 | 65.55392 | -22.57262 | 21401 ft | 401 kts | 167° |
| 2026-05-06 14:42 | 65.52827 | -22.55944 | 21403 ft | 401 kts | 167° |
| 2026-05-06 14:43 | 65.50159 | -22.54575 | 21404 ft | 401 kts | 167° |
| 2026-05-06 14:43 | 65.47430 | -22.53177 | 21404 ft | 401 kts | 167° |
| 2026-05-06 14:43 | 65.44719 | -22.51792 | 21404 ft | 401 kts | 167° |
| 2026-05-06 14:43 | 65.41972 | -22.50391 | 21404 ft | 401 kts | 167° |
| 2026-05-06 14:44 | 65.39253 | -22.49006 | 21404 ft | 401 kts | 167° |
| 2026-05-06 14:44 | 65.36565 | -22.47641 | 21404 ft | 401 kts | 167° |
| 2026-05-06 14:44 | 65.33838 | -22.46258 | 21404 ft | 401 kts | 167° |
| 2026-05-06 14:45 | 65.28375 | -22.43498 | 21404 ft | 401 kts | 167° |
| 2026-05-06 14:45 | 65.25668 | -22.42134 | 21404 ft | 401 kts | 167° |
| 2026-05-06 14:45 | 65.22971 | -22.40778 | 21400 ft | 401 kts | 167° |
| 2026-05-06 14:45 | 65.20377 | -22.39477 | 21393 ft | 402 kts | 167° |
| 2026-05-06 14:46 | 65.18414 | -22.38494 | 21385 ft | 402 kts | 167° |
| 2026-05-06 14:46 | 65.17062 | -22.37817 | 21380 ft | 402 kts | 167° |
| 2026-05-06 14:46 | 65.15125 | -22.36849 | 21372 ft | 402 kts | 167° |
| 2026-05-06 14:46 | 65.13000 | -22.35790 | 21362 ft | 402 kts | 167° |
| 2026-05-06 14:47 | 65.10261 | -22.34424 | 21344 ft | 403 kts | 167° |
| 2026-05-06 14:47 | 65.07545 | -22.33061 | 21324 ft | 403 kts | 167° |
| 2026-05-06 14:47 | 65.04788 | -22.31683 | 21307 ft | 403 kts | 167° |
| 2026-05-06 14:47 | 65.02039 | -22.30315 | 21294 ft | 403 kts | 167° |
| 2026-05-06 14:48 | 64.99309 | -22.28963 | 21286 ft | 403 kts | 167° |
| 2026-05-06 14:48 | 64.96832 | -22.27741 | 21281 ft | 403 kts | 167° |
| 2026-05-06 14:48 | 64.94568 | -22.26626 | 21278 ft | 403 kts | 167° |
| 2026-05-06 14:48 | 64.91953 | -22.25342 | 21276 ft | 403 kts | 167° |
| 2026-05-06 14:49 | 64.90400 | -22.24583 | 21275 ft | 404 kts | 167° |
| 2026-05-06 14:49 | 64.89224 | -22.24013 | 21277 ft | 403 kts | 167° |
| 2026-05-06 14:49 | 64.88163 | -22.23498 | 21288 ft | 402 kts | 167° |
| 2026-05-06 14:49 | 64.86799 | -22.22835 | 21252 ft | 402 kts | 167° |
| 2026-05-06 14:50 | 64.84055 | -22.21499 | 20727 ft | 403 kts | 167° |
| 2026-05-06 14:50 | 64.81353 | -22.20183 | 20214 ft | 400 kts | 167° |
| 2026-05-06 14:50 | 64.78662 | -22.18875 | 19747 ft | 396 kts | 167° |
| 2026-05-06 14:50 | 64.75996 | -22.17582 | 19284 ft | 393 kts | 167° |
| 2026-05-06 14:51 | 64.73309 | -22.16285 | 18814 ft | 390 kts | 167° |
| 2026-05-06 14:51 | 64.70666 | -22.15567 | 18351 ft | 388 kts | 178° |
| 2026-05-06 14:51 | 64.67996 | -22.15935 | 17894 ft | 386 kts | 188° |
| 2026-05-06 14:51 | 64.65355 | -22.17161 | 17433 ft | 383 kts | 192° |
| 2026-05-06 14:52 | 64.62790 | -22.18554 | 16981 ft | 380 kts | 193° |
| 2026-05-06 14:52 | 64.60244 | -22.19958 | 16531 ft | 378 kts | 193° |
| 2026-05-06 14:52 | 64.57708 | -22.21335 | 16084 ft | 375 kts | 193° |
| 2026-05-06 14:52 | 64.55196 | -22.22675 | 15642 ft | 372 kts | 192° |
| 2026-05-06 14:53 | 64.52692 | -22.23994 | 15200 ft | 370 kts | 192° |
| 2026-05-06 14:53 | 64.50274 | -22.25257 | 14768 ft | 367 kts | 192° |
| 2026-05-06 14:53 | 64.47795 | -22.26545 | 14331 ft | 365 kts | 192° |
| 2026-05-06 14:53 | 64.45335 | -22.27819 | 13896 ft | 363 kts | 192° |
| 2026-05-06 14:54 | 64.42892 | -22.29080 | 13462 ft | 360 kts | 192° |
| 2026-05-06 14:54 | 64.40459 | -22.30333 | 13030 ft | 358 kts | 192° |
| 2026-05-06 14:54 | 64.38397 | -22.31393 | 12662 ft | 356 kts | 192° |
| 2026-05-06 14:54 | 64.36912 | -22.32155 | 12385 ft | 356 kts | 192° |
| 2026-05-06 14:55 | 64.35326 | -22.32968 | 12053 ft | 356 kts | 192° |
| 2026-05-06 14:55 | 64.33405 | -22.33951 | 11628 ft | 356 kts | 192° |
| 2026-05-06 14:55 | 64.31001 | -22.35178 | 11244 ft | 351 kts | 192° |
| 2026-05-06 14:55 | 64.28684 | -22.36360 | 10969 ft | 342 kts | 192° |
| 2026-05-06 14:56 | 64.26544 | -22.37448 | 10757 ft | 333 kts | 192° |
| 2026-05-06 14:56 | 64.24928 | -22.38269 | 10596 ft | 326 kts | 192° |
| 2026-05-06 14:56 | 64.23488 | -22.38999 | 10347 ft | 321 kts | 192° |
| 2026-05-06 14:56 | 64.21877 | -22.39816 | 9986 ft | 315 kts | 192° |
| 2026-05-06 14:57 | 64.20252 | -22.40639 | 9622 ft | 312 kts | 192° |
| 2026-05-06 14:57 | 64.18163 | -22.41695 | 9263 ft | 309 kts | 191° |
| 2026-05-06 14:57 | 64.16056 | -22.42425 | 8921 ft | 305 kts | 182° |
| 2026-05-06 14:57 | 64.13972 | -22.42469 | 8598 ft | 300 kts | 176° |
| 2026-05-06 14:58 | 64.12080 | -22.42253 | 8307 ft | 297 kts | 174° |
| 2026-05-06 14:58 | 64.10846 | -22.42080 | 8116 ft | 295 kts | 174° |
| 2026-05-06 14:58 | 64.09359 | -22.41867 | 7890 ft | 292 kts | 174° |
| 2026-05-06 14:58 | 64.07616 | -22.41627 | 7626 ft | 289 kts | 174° |
| 2026-05-06 14:59 | 64.05697 | -22.41377 | 7338 ft | 287 kts | 175° |
| 2026-05-06 14:59 | 64.03726 | -22.41132 | 7040 ft | 284 kts | 175° |
| 2026-05-06 14:59 | 64.01756 | -22.40894 | 6739 ft | 282 kts | 175° |
| 2026-05-06 14:59 | 63.99815 | -22.40664 | 6443 ft | 280 kts | 175° |
| 2026-05-06 15:00 | 63.98103 | -22.40466 | 6180 ft | 279 kts | 175° |
| 2026-05-06 15:00 | 63.96271 | -22.40248 | 5898 ft | 277 kts | 175° |
| 2026-05-06 15:00 | 63.94379 | -22.40020 | 5608 ft | 275 kts | 175° |
| 2026-05-06 15:00 | 63.92479 | -22.39794 | 5317 ft | 274 kts | 175° |
| 2026-05-06 15:01 | 63.90585 | -22.39572 | 5025 ft | 273 kts | 175° |
| 2026-05-06 15:01 | 63.89223 | -22.39413 | 4808 ft | 272 kts | 175° |
| 2026-05-06 15:01 | 63.87441 | -22.39209 | 4530 ft | 270 kts | 175° |
| 2026-05-06 15:01 | 63.85685 | -22.39008 | 4258 ft | 269 kts | 175° |
| 2026-05-06 15:02 | 63.84090 | -22.38825 | 4010 ft | 268 kts | 175° |
| 2026-05-06 15:02 | 63.82849 | -22.38683 | 3816 ft | 267 kts | 175° |
| 2026-05-06 15:02 | 63.81613 | -22.38540 | 3670 ft | 264 kts | 175° |
| 2026-05-06 15:02 | 63.80405 | -22.38412 | 3636 ft | 255 kts | 177° |
| 2026-05-06 15:03 | 63.79203 | -22.38717 | 3613 ft | 247 kts | 199° |
| 2026-05-06 15:03 | 63.78222 | -22.40018 | 3619 ft | 235 kts | 227° |
| 2026-05-06 15:03 | 63.77613 | -22.42069 | 3550 ft | 224 kts | 256° |
| 2026-05-06 15:03 | 63.77546 | -22.44961 | 3466 ft | 205 kts | 291° |
| 2026-05-06 15:04 | 63.78051 | -22.47806 | 3400 ft | 190 kts | 301° |
| 2026-05-06 15:04 | 63.78576 | -22.50300 | 3319 ft | 183 kts | 301° |
| 2026-05-06 15:04 | 63.79091 | -22.52894 | 3221 ft | 184 kts | 299° |
| 2026-05-06 15:04 | 63.79578 | -22.55566 | 3111 ft | 184 kts | 298° |
| 2026-05-06 15:05 | 63.80042 | -22.58264 | 2972 ft | 185 kts | 297° |
| 2026-05-06 15:05 | 63.80667 | -22.60671 | 2664 ft | 180 kts | 327° |
| 2026-05-06 15:05 | 63.81346 | -22.61468 | 2628 ft | 167 kts | 354° |
| 2026-05-06 15:05 | 63.82370 | -22.61416 | 2648 ft | 165 kts | 12° |
| 2026-05-06 15:06 | 63.83389 | -22.61031 | 2624 ft | 166 kts | 11° |
| 2026-05-06 15:06 | 63.84512 | -22.60731 | 2441 ft | 166 kts | 8° |
| 2026-05-06 15:06 | 63.85660 | -22.60569 | 2220 ft | 166 kts | 5° |
| 2026-05-06 15:06 | 63.86431 | -22.60528 | 2078 ft | 165 kts | 4° |
| 2026-05-06 15:07 | 63.87237 | -22.60524 | 1928 ft | 161 kts | 3° |
| 2026-05-06 15:07 | 63.88045 | -22.60533 | 1771 ft | 157 kts | 3° |
| 2026-05-06 15:07 | 63.89027 | -22.60543 | 1581 ft | 153 kts | 3° |
| 2026-05-06 15:07 | 63.89989 | -22.60550 | 1394 ft | 149 kts | 4° |
| 2026-05-06 15:08 | 63.90882 | -22.60550 | 1229 ft | 137 kts | 4° |
| 2026-05-06 15:08 | 63.91491 | -22.60550 | 1101 ft | 130 kts | 4° |
| 2026-05-06 15:08 | 63.92264 | -22.60551 | 931 ft | 118 kts | 4° |
| 2026-05-06 15:08 | 63.92912 | -22.60552 | 813 ft | 116 kts | 4° |
| 2026-05-06 15:09 | 63.93594 | -22.60545 | 681 ft | 116 kts | 4° |
| 2026-05-06 15:09 | 63.94361 | -22.60554 | 533 ft | 116 kts | 4° |
| 2026-05-06 15:09 | 63.95108 | -22.60554 | 404 ft | 116 kts | 4° |
| 2026-05-06 15:09 | 63.95859 | -22.60558 | 263 ft | 116 kts | 4° |
| 2026-05-06 15:10 | 63.96603 | -22.60554 | 140 ft | 115 kts | 4° |
| 2026-05-06 15:10 | 63.97194 | -22.60545 | 143 ft | 84 kts | 0° |
| 2026-05-06 15:10 | 63.97548 | -22.60551 | 151 ft | 51 kts | 359° |
| 2026-05-06 15:10 | 63.97806 | -22.60551 | 155 ft | 42 kts | 1° |
| 2026-05-06 15:11 | 63.98006 | -22.60571 | 158 ft | 33 kts | 350° |
| 2026-05-06 15:11 | 63.98191 | -22.60724 | 155 ft | 33 kts | 331° |
| 2026-05-06 15:11 | 63.98353 | -22.60935 | 149 ft | 20 kts | 336° |
| 2026-05-06 15:11 | 63.98484 | -22.60948 | 147 ft | 21 kts | 5° |
| 2026-05-06 15:12 | 63.98608 | -22.60947 | 147 ft | 22 kts | 1° |
| 2026-05-06 15:12 | 63.98744 | -22.60957 | 147 ft | 23 kts | 355° |
| 2026-05-06 15:12 | 63.98875 | -22.60964 | 146 ft | 24 kts | 0° |
| 2026-05-06 15:12 | 63.99000 | -22.60947 | 143 ft | 25 kts | 5° |
| 2026-05-06 15:13 | 63.99146 | -22.60954 | 143 ft | 17 kts | 345° |
| 2026-05-06 15:13 | 63.99174 | -22.61074 | 143 ft | 10 kts | 274° |
| 2026-05-06 15:13 | 63.99174 | -22.61235 | 142 ft | 16 kts | 271° |
| 2026-05-06 15:13 | 63.99175 | -22.61531 | 140 ft | 22 kts | 270° |
| 2026-05-06 15:14 | 63.99173 | -22.61844 | 140 ft | 22 kts | 271° |
| 2026-05-06 15:14 | 63.99201 | -22.62013 | 140 ft | 9 kts | 12° |
| 2026-05-06 15:14 | 63.99271 | -22.61997 | 140 ft | 12 kts | 358° |
| 2026-05-06 15:14 | 63.99327 | -22.62038 | 140 ft | 8 kts | 287° |
| 2026-05-06 15:15 | 63.99327 | -22.62153 | 140 ft | 8 kts | 271° |
| 2026-05-06 15:15 | 63.99327 | -22.62182 | 140 ft | 0 kts | 270° |
| 2026-05-06 15:15 | 63.99327 | -22.62174 | 140 ft | 0 kts | 272° |
| 2026-05-06 15:15 | 63.99327 | -22.62177 | 140 ft | 2 kts | 271° |
| 2026-05-06 15:16 | 63.99327 | -22.62179 | 140 ft | 0 kts | 271° |